createdAt,value
2023-01-30T00:01:43.068Z,24.50
2023-01-30T00:04:16.075Z,24.50
2023-01-30T00:06:45.068Z,24.40
2023-01-30T00:09:14.697Z,24.40
2023-01-30T00:11:42.711Z,24.30
2023-01-30T00:14:10.847Z,24.30
2023-01-30T00:16:38.941Z,24.20
2023-01-30T00:19:06.942Z,24.20
2023-01-30T00:21:36.300Z,24.10
2023-01-30T00:24:05.097Z,24.10
2023-01-30T00:26:33.127Z,24.10
2023-01-30T00:29:01.153Z,24.00
2023-01-30T00:31:29.190Z,24.00
2023-01-30T00:33:57.193Z,23.90
2023-01-30T00:36:25.175Z,23.90
2023-01-30T00:38:54.529Z,23.80
2023-01-30T00:41:22.763Z,23.80
2023-01-30T00:44:08.279Z,23.80
2023-01-30T00:46:53.670Z,23.70
2023-01-30T00:49:21.745Z,23.70
2023-01-30T00:51:49.705Z,23.70
2023-01-30T00:54:19.062Z,23.60
2023-01-30T00:56:47.081Z,23.60
2023-01-30T00:59:15.067Z,23.50
2023-01-30T01:01:43.070Z,23.50
2023-01-30T01:04:11.816Z,23.50
2023-01-30T01:06:39.790Z,23.50
2023-01-30T01:09:07.935Z,23.50
2023-01-30T01:11:37.248Z,23.50
2023-01-30T01:14:05.846Z,23.40
2023-01-30T01:16:34.004Z,23.40
2023-01-30T01:19:02.079Z,23.40
2023-01-30T01:21:30.056Z,23.30
2023-01-30T01:24:00.399Z,23.30
2023-01-30T01:26:28.640Z,23.30
2023-01-30T01:28:58.060Z,23.30
2023-01-30T01:31:26.159Z,23.30
2023-01-30T01:33:54.218Z,23.30
2023-01-30T01:36:51.785Z,23.30
2023-01-30T01:39:10.154Z,23.20
2023-01-30T01:41:37.155Z,23.20
2023-01-30T01:44:07.735Z,23.20
2023-01-30T01:46:36.860Z,23.20
2023-01-30T01:49:06.829Z,23.10
2023-01-30T01:51:36.043Z,23.20
2023-01-30T01:54:06.215Z,23.10
2023-01-30T01:56:34.164Z,23.20
2023-01-30T01:59:03.857Z,23.10
2023-01-30T02:01:33.172Z,23.10
2023-01-30T02:04:03.411Z,23.10
2023-01-30T02:06:31.472Z,23.00
2023-01-30T02:09:00.559Z,23.00
2023-01-30T02:11:32.745Z,23.00
2023-01-30T02:14:00.802Z,23.00
2023-01-30T02:16:28.780Z,23.00
2023-01-30T02:18:58.070Z,23.00
2023-01-30T02:21:55.964Z,23.00
2023-01-30T02:24:42.533Z,23.00
2023-01-30T02:27:34.965Z,22.90
2023-01-30T02:30:23.623Z,22.90
2023-01-30T02:32:58.525Z,22.90
2023-01-30T02:35:29.460Z,22.80
2023-01-30T02:38:05.002Z,22.90
2023-01-30T02:40:40.225Z,22.80
2023-01-30T02:43:13.310Z,22.80
2023-01-30T02:45:44.063Z,22.80
2023-01-30T02:48:14.219Z,22.80
2023-01-30T02:50:44.342Z,22.80
2023-01-30T02:53:12.317Z,22.80
2023-01-30T02:55:41.683Z,22.70
2023-01-30T02:58:09.661Z,22.80
2023-01-30T03:00:53.889Z,22.70
2023-01-30T03:03:39.576Z,22.70
2023-01-30T03:06:18.953Z,22.70
2023-01-30T03:08:53.536Z,22.70
2023-01-30T03:11:24.424Z,22.70
2023-01-30T03:13:55.547Z,22.70
2023-01-30T03:16:25.823Z,22.70
2023-01-30T03:18:55.164Z,22.70
2023-01-30T03:21:23.114Z,22.60
2023-01-30T03:23:51.273Z,22.60
2023-01-30T03:26:20.207Z,22.60
2023-01-30T03:28:48.929Z,22.60
2023-01-30T03:31:17.083Z,22.60
2023-01-30T03:33:45.076Z,22.60
2023-01-30T03:36:14.447Z,22.60
2023-01-30T03:38:42.398Z,22.50
2023-01-30T03:41:10.384Z,22.50
2023-01-30T03:43:38.341Z,22.50
2023-01-30T03:46:06.433Z,22.50
2023-01-30T03:48:34.392Z,22.50
2023-01-30T03:51:02.361Z,22.50
2023-01-30T03:53:31.702Z,22.50
2023-01-30T03:55:59.674Z,22.50
2023-01-30T03:58:27.627Z,22.50
2023-01-30T04:00:57.217Z,22.40
2023-01-30T04:03:25.304Z,22.40
2023-01-30T04:05:53.303Z,22.40
2023-01-30T04:08:21.267Z,22.40
2023-01-30T04:10:50.621Z,22.40
2023-01-30T04:13:18.655Z,22.40
2023-01-30T04:15:46.602Z,22.40
2023-01-30T04:18:14.560Z,22.40
2023-01-30T04:20:42.569Z,22.30
2023-01-30T04:23:10.521Z,22.30
2023-01-30T04:25:38.489Z,22.30
2023-01-30T04:28:07.912Z,22.30
2023-01-30T04:30:35.917Z,22.30
2023-01-30T04:33:03.900Z,22.30
2023-01-30T04:35:31.873Z,22.30
2023-01-30T04:37:59.837Z,22.20
2023-01-30T04:40:29.027Z,22.20
2023-01-30T04:42:57.101Z,22.20
2023-01-30T04:45:26.512Z,22.20
2023-01-30T04:47:54.741Z,22.20
2023-01-30T04:50:22.690Z,22.20
2023-01-30T04:52:50.697Z,22.20
2023-01-30T04:55:19.035Z,22.20
2023-01-30T04:57:47.216Z,22.20
2023-01-30T05:00:15.731Z,22.20
2023-01-30T05:02:45.035Z,22.20
2023-01-30T05:05:13.166Z,22.10
2023-01-30T05:07:41.112Z,22.10
2023-01-30T05:10:10.114Z,22.10
2023-01-30T05:12:38.116Z,22.10
2023-01-30T05:15:07.113Z,22.10
2023-01-30T05:17:35.184Z,22.10
2023-01-30T05:20:04.899Z,22.10
2023-01-30T05:22:32.894Z,22.10
2023-01-30T05:25:00.871Z,22.10
2023-01-30T05:27:28.814Z,22.00
2023-01-30T05:29:56.807Z,22.00
2023-01-30T05:32:25.706Z,22.00
2023-01-30T05:34:53.688Z,22.00
2023-01-30T05:37:24.427Z,22.20
2023-01-30T05:39:52.459Z,22.20
2023-01-30T05:42:20.401Z,22.30
2023-01-30T05:44:48.396Z,22.20
2023-01-30T05:47:16.352Z,22.20
2023-01-30T05:49:44.332Z,22.20
2023-01-30T05:52:12.390Z,22.20
2023-01-30T05:54:41.796Z,22.10
2023-01-30T05:57:09.786Z,22.10
2023-01-30T05:59:37.783Z,22.10
2023-01-30T06:02:05.747Z,22.10
2023-01-30T06:04:33.714Z,22.00
2023-01-30T06:07:01.657Z,22.00
2023-01-30T06:09:29.643Z,22.00
2023-01-30T06:11:59.211Z,22.00
2023-01-30T06:14:27.251Z,22.00
2023-01-30T06:16:55.267Z,22.00
2023-01-30T06:19:23.297Z,22.00
2023-01-30T06:21:51.247Z,21.90
2023-01-30T06:24:19.286Z,21.90
2023-01-30T06:26:47.567Z,21.90
2023-01-30T06:29:16.993Z,21.90
2023-01-30T06:31:45.098Z,21.80
2023-01-30T06:34:13.462Z,21.80
2023-01-30T06:36:41.484Z,21.80
2023-01-30T06:39:09.469Z,21.80
2023-01-30T06:41:37.487Z,21.80
2023-01-30T06:44:05.781Z,21.80
2023-01-30T06:46:35.377Z,21.80
2023-01-30T06:49:03.355Z,21.80
2023-01-30T06:51:32.520Z,21.70
2023-01-30T06:54:00.722Z,21.70
2023-01-30T06:56:28.708Z,21.70
2023-01-30T06:58:56.687Z,21.70
2023-01-30T07:01:24.926Z,21.70
2023-01-30T07:03:54.356Z,21.70
2023-01-30T07:06:22.345Z,21.70
2023-01-30T07:08:50.437Z,21.70
2023-01-30T07:11:18.469Z,21.60
2023-01-30T07:13:46.581Z,21.60
2023-01-30T07:16:14.547Z,21.60
2023-01-30T07:18:42.527Z,21.60
2023-01-30T07:21:12.113Z,21.60
2023-01-30T07:23:40.101Z,21.60
2023-01-30T07:26:08.080Z,21.60
2023-01-30T07:28:36.237Z,21.60
2023-01-30T07:31:04.292Z,21.60
2023-01-30T07:33:32.482Z,21.60
2023-01-30T07:36:00.622Z,21.60
2023-01-30T07:38:29.950Z,21.50
2023-01-30T07:40:58.788Z,21.60
2023-01-30T07:43:26.923Z,21.50
2023-01-30T07:45:54.913Z,21.50
2023-01-30T07:48:22.939Z,21.50
2023-01-30T07:50:51.277Z,21.50
2023-01-30T07:53:19.516Z,21.50
2023-01-30T07:55:48.976Z,21.50
2023-01-30T07:58:17.152Z,21.50
2023-01-30T08:00:45.255Z,21.50
2023-01-30T08:03:13.917Z,21.40
2023-01-30T08:05:42.152Z,21.40
2023-01-30T08:08:10.119Z,21.40
2023-01-30T08:10:38.117Z,21.40
2023-01-30T08:13:07.601Z,21.40
2023-01-30T08:15:35.585Z,21.40
2023-01-30T08:18:03.573Z,21.40
2023-01-30T08:20:31.817Z,21.40
2023-01-30T08:23:00.035Z,21.40
2023-01-30T08:25:28.063Z,21.40
2023-01-30T08:27:56.364Z,21.40
2023-01-30T08:30:25.851Z,21.30
2023-01-30T08:32:54.132Z,21.30
2023-01-30T08:35:22.289Z,21.30
2023-01-30T08:37:50.327Z,21.30
2023-01-30T08:40:18.807Z,21.40
2023-01-30T08:42:47.352Z,21.30
2023-01-30T08:45:15.462Z,21.30
2023-01-30T08:47:44.793Z,21.30
2023-01-30T08:50:13.298Z,21.30
2023-01-30T08:52:41.334Z,21.30
2023-01-30T08:55:10.356Z,21.30
2023-01-30T08:57:38.381Z,21.30
2023-01-30T09:00:07.413Z,21.30
2023-01-30T09:02:35.565Z,21.30
2023-01-30T09:05:05.591Z,21.30
2023-01-30T09:07:33.537Z,21.30
2023-01-30T09:10:01.567Z,21.30
2023-01-30T09:12:29.802Z,21.30
2023-01-30T09:15:00.430Z,21.30
2023-01-30T09:17:28.426Z,21.30
2023-01-30T09:19:56.618Z,21.30
2023-01-30T09:22:28.678Z,21.30
2023-01-30T09:24:56.932Z,21.30
2023-01-30T09:27:24.925Z,21.20
2023-01-30T09:29:53.002Z,21.20
2023-01-30T09:32:21.315Z,21.20
2023-01-30T09:34:49.498Z,21.20
2023-01-30T09:37:17.460Z,21.20
2023-01-30T09:39:46.959Z,21.20
2023-01-30T09:42:38.150Z,21.20
2023-01-30T09:45:30.865Z,21.20
2023-01-30T09:48:02.896Z,21.20
2023-01-30T09:50:40.838Z,21.20
2023-01-30T09:53:13.904Z,21.20
2023-01-30T09:55:43.531Z,21.20
2023-01-30T09:58:17.466Z,21.10
2023-01-30T10:00:47.118Z,21.10
2023-01-30T10:03:16.026Z,21.10
2023-01-30T10:05:45.847Z,21.10
2023-01-30T10:08:44.531Z,21.10
2023-01-30T10:11:19.409Z,21.10
2023-01-30T10:13:56.181Z,21.10
2023-01-30T10:16:26.213Z,21.10
2023-01-30T10:19:01.609Z,21.10
2023-01-30T10:21:37.509Z,21.10
2023-01-30T10:24:16.753Z,21.10
2023-01-30T10:26:46.111Z,21.10
2023-01-30T10:29:15.567Z,21.10
2023-01-30T10:31:45.111Z,21.10
2023-01-30T10:34:15.242Z,21.10
2023-01-30T10:36:44.919Z,21.10
2023-01-30T10:39:22.109Z,21.10
2023-01-30T10:41:55.676Z,21.10
2023-01-30T10:44:24.322Z,21.10
2023-01-30T10:47:41.735Z,21.10
2023-01-30T10:50:16.727Z,21.00
2023-01-30T10:52:48.297Z,21.00
2023-01-30T10:55:37.094Z,21.00
2023-01-30T10:58:10.993Z,21.00
2023-01-30T11:00:40.968Z,21.00
2023-01-30T11:03:18.002Z,21.00
2023-01-30T11:05:48.733Z,21.00
2023-01-30T11:08:24.023Z,21.00
2023-01-30T11:10:52.427Z,21.00
2023-01-30T11:13:24.618Z,21.00
2023-01-30T11:15:53.872Z,21.00
2023-01-30T11:19:06.630Z,21.00
2023-01-30T11:21:11.682Z,21.00
2023-01-30T11:23:41.728Z,20.90
2023-01-30T11:26:17.369Z,20.90
2023-01-30T11:28:48.902Z,21.00
2023-01-30T11:31:28.190Z,21.00
2023-01-30T11:34:04.362Z,20.90
2023-01-30T11:36:33.184Z,20.90
2023-01-30T11:39:02.694Z,20.90
2023-01-30T11:41:31.225Z,20.90
2023-01-30T11:44:04.543Z,20.90
2023-01-30T11:46:35.277Z,21.00
2023-01-30T11:49:46.743Z,21.00
2023-01-30T11:51:53.938Z,21.10
2023-01-30T11:54:23.810Z,21.10
2023-01-30T11:56:54.089Z,21.30
2023-01-30T11:59:26.114Z,21.40
2023-01-30T12:01:54.340Z,21.60
2023-01-30T12:04:22.535Z,21.70
2023-01-30T12:06:50.870Z,21.90
2023-01-30T12:09:32.526Z,22.20
2023-01-30T12:12:00.686Z,22.40
2023-01-30T12:14:36.692Z,22.60
2023-01-30T12:17:08.847Z,22.80
2023-01-30T12:19:47.772Z,23.00
2023-01-30T12:22:22.350Z,23.20
2023-01-30T12:24:54.105Z,23.30
2023-01-30T12:27:24.968Z,23.50
2023-01-30T12:29:58.343Z,23.60
2023-01-30T12:32:27.895Z,23.80
2023-01-30T12:34:56.391Z,23.90
2023-01-30T12:37:37.243Z,24.00
2023-01-30T12:40:09.021Z,24.10
2023-01-30T12:43:17.236Z,24.30
2023-01-30T12:45:48.381Z,24.40
2023-01-30T12:48:30.964Z,24.50
2023-01-30T12:51:05.482Z,24.60
2023-01-30T12:53:38.061Z,24.80
2023-01-30T12:56:33.535Z,24.90
2023-01-30T12:59:03.966Z,24.90
2023-01-30T13:01:36.235Z,25.10
2023-01-30T13:04:07.653Z,25.10
2023-01-30T13:06:57.122Z,25.20
2023-01-30T13:09:43.459Z,25.30
2023-01-30T13:12:15.061Z,25.40
2023-01-30T13:14:44.852Z,25.40
2023-01-30T13:17:21.710Z,25.40
2023-01-30T13:19:52.915Z,25.40
2023-01-30T13:22:23.251Z,25.40
2023-01-30T13:25:00.237Z,25.40
2023-01-30T13:27:28.541Z,25.40
2023-01-30T13:29:56.486Z,25.50
2023-01-30T13:32:34.452Z,25.50
2023-01-30T13:35:02.554Z,25.60
2023-01-30T13:37:30.569Z,25.70
2023-01-30T13:39:59.984Z,25.80
2023-01-30T13:42:30.442Z,25.90
2023-01-30T13:44:58.833Z,26.00
2023-01-30T13:47:40.401Z,26.10
2023-01-30T13:50:24.413Z,26.10
2023-01-30T13:52:55.125Z,26.20
2023-01-30T13:55:27.218Z,26.30
2023-01-30T13:57:57.432Z,26.40
2023-01-30T14:00:30.990Z,26.50
2023-01-30T14:03:33.344Z,26.50
2023-01-30T14:06:20.164Z,26.60
2023-01-30T14:08:53.752Z,26.70
2023-01-30T14:11:31.053Z,26.70
2023-01-30T14:14:02.950Z,26.80
2023-01-30T14:16:44.537Z,26.80
2023-01-30T14:19:41.751Z,26.90
2023-01-30T14:22:24.413Z,27.00
2023-01-30T14:25:32.931Z,27.10
2023-01-30T14:28:48.809Z,27.10
2023-01-30T14:31:56.412Z,27.10
2023-01-30T14:34:50.726Z,27.10
2023-01-30T14:37:47.317Z,27.10
2023-01-30T14:40:55.749Z,27.10
2023-01-30T14:43:53.518Z,27.00
2023-01-30T14:46:55.031Z,26.90
2023-01-30T14:49:32.637Z,26.90
2023-01-30T14:52:03.667Z,26.80
2023-01-30T14:54:42.658Z,26.70
2023-01-30T14:57:22.099Z,26.60
2023-01-30T15:00:11.226Z,26.50
2023-01-30T15:02:43.672Z,26.50
2023-01-30T15:05:14.197Z,26.40
2023-01-30T15:07:45.292Z,26.30
2023-01-30T15:10:25.005Z,26.20
2023-01-30T15:13:18.187Z,26.10
2023-01-30T15:15:50.345Z,26.00
2023-01-30T15:18:35.304Z,26.00
2023-01-30T15:21:37.406Z,25.90
2023-01-30T15:24:37.124Z,25.80
2023-01-30T15:27:08.603Z,25.70
2023-01-30T15:29:48.525Z,25.60
2023-01-30T15:32:18.311Z,25.60
2023-01-30T15:34:50.618Z,25.50
2023-01-30T15:37:34.181Z,25.40
2023-01-30T15:40:19.118Z,25.30
2023-01-30T15:42:47.838Z,25.30
2023-01-30T15:45:17.419Z,25.30
2023-01-30T15:47:54.428Z,25.20
2023-01-30T15:50:22.413Z,25.10
2023-01-30T15:52:50.996Z,25.10
2023-01-30T15:55:22.282Z,25.10
2023-01-30T15:57:52.856Z,25.00
2023-01-30T16:00:26.853Z,25.00
2023-01-30T16:02:54.894Z,24.90
2023-01-30T16:05:25.352Z,24.90
2023-01-30T16:07:54.474Z,24.80
2023-01-30T16:10:25.190Z,24.80
2023-01-30T16:12:54.995Z,24.80
2023-01-30T16:15:27.643Z,24.70
2023-01-30T16:18:05.400Z,24.70
2023-01-30T16:20:34.707Z,24.60
2023-01-30T16:23:02.790Z,24.60
2023-01-30T16:25:34.499Z,24.60
2023-01-30T16:28:02.604Z,24.50
2023-01-30T16:30:30.736Z,24.50
2023-01-30T16:32:58.951Z,24.50
2023-01-30T16:35:34.308Z,24.50
2023-01-30T16:38:03.692Z,24.40
2023-01-30T16:40:44.041Z,24.40
2023-01-30T16:43:19.340Z,24.40
2023-01-30T16:46:23.011Z,24.30
2023-01-30T16:48:51.099Z,24.30
2023-01-30T16:51:24.177Z,24.40
2023-01-30T16:53:58.151Z,24.40
2023-01-30T16:56:27.747Z,24.40
2023-01-30T16:58:57.436Z,24.40
2023-01-30T17:01:35.357Z,24.40
2023-01-30T17:04:04.324Z,24.40
2023-01-30T17:06:36.849Z,24.40
2023-01-30T17:09:05.907Z,24.40
2023-01-30T17:11:36.773Z,24.50
2023-01-30T17:14:19.203Z,24.50
2023-01-30T17:16:47.446Z,24.50
2023-01-30T17:19:15.506Z,24.50
2023-01-30T17:21:49.467Z,24.50
2023-01-30T17:24:18.390Z,24.50
2023-01-30T17:26:48.933Z,24.60
2023-01-30T17:29:28.923Z,24.60
2023-01-30T17:32:10.255Z,24.60
2023-01-30T17:34:41.175Z,24.60
2023-01-30T17:37:10.763Z,24.60
2023-01-30T17:39:38.788Z,24.60
2023-01-30T17:42:10.931Z,24.50
2023-01-30T17:44:38.974Z,24.50
2023-01-30T17:47:07.402Z,24.50
2023-01-30T17:49:35.689Z,24.40
2023-01-30T17:52:03.681Z,24.40
2023-01-30T17:54:31.634Z,24.40
2023-01-30T17:57:01.621Z,24.40
2023-01-30T17:59:31.250Z,24.40
2023-01-30T18:01:59.330Z,24.30
2023-01-30T18:04:27.755Z,24.30
2023-01-30T18:06:58.969Z,24.30
2023-01-30T18:09:27.032Z,24.20
2023-01-30T18:11:55.471Z,24.20
2023-01-30T18:14:23.808Z,24.20
2023-01-30T18:16:53.288Z,24.10
2023-01-30T18:19:24.328Z,24.10
2023-01-30T18:21:52.486Z,24.10
2023-01-30T18:24:20.569Z,24.10
2023-01-30T18:26:48.952Z,24.00
2023-01-30T18:29:17.027Z,24.00
2023-01-30T18:31:45.189Z,23.90
2023-01-30T18:34:14.872Z,23.90
2023-01-30T18:36:42.845Z,23.90
2023-01-30T18:39:12.209Z,23.90
2023-01-30T18:41:40.342Z,23.80
2023-01-30T18:44:08.404Z,23.80
2023-01-30T18:46:36.447Z,23.80
2023-01-30T18:49:04.464Z,23.80
2023-01-30T18:51:34.294Z,23.80
2023-01-30T18:54:02.525Z,23.80
2023-01-30T18:56:32.019Z,23.70
2023-01-30T18:59:02.512Z,23.70
2023-01-30T19:01:31.786Z,23.70
2023-01-30T19:04:00.632Z,23.60
2023-01-30T19:06:28.857Z,23.60
2023-01-30T19:08:59.229Z,23.60
2023-01-30T19:11:44.633Z,23.60
2023-01-30T19:14:14.387Z,23.50
2023-01-30T19:16:42.498Z,23.50
2023-01-30T19:19:10.867Z,23.50
2023-01-30T19:21:39.330Z,23.50
2023-01-30T19:24:11.799Z,23.50
2023-01-30T19:26:40.044Z,23.50
2023-01-30T19:29:08.066Z,23.50
2023-01-30T19:31:36.209Z,23.50
2023-01-30T19:34:06.514Z,23.40
2023-01-30T19:36:35.436Z,23.40
2023-01-30T19:39:04.240Z,23.40
2023-01-30T19:41:35.184Z,23.40
2023-01-30T19:44:04.093Z,23.40
2023-01-30T19:46:32.147Z,23.30
2023-01-30T19:49:00.484Z,23.30
2023-01-30T19:51:29.555Z,23.30
2023-01-30T19:53:59.241Z,23.30
2023-01-30T19:56:27.958Z,23.30
2023-01-30T19:58:58.748Z,23.30
2023-01-30T20:01:29.601Z,23.20
2023-01-30T20:03:57.756Z,23.30
2023-01-30T20:06:27.027Z,23.20
2023-01-30T20:08:56.157Z,23.20
2023-01-30T20:11:24.235Z,23.20
2023-01-30T20:13:53.287Z,23.20
2023-01-30T20:16:25.037Z,23.10
2023-01-30T20:18:55.982Z,23.10
2023-01-30T20:21:24.208Z,23.10
2023-01-30T20:23:52.616Z,23.10
2023-01-30T20:26:21.543Z,23.10
2023-01-30T20:28:49.898Z,23.10
2023-01-30T20:31:19.725Z,23.00
2023-01-30T20:33:49.350Z,23.10
2023-01-30T20:36:18.817Z,23.10
2023-01-30T20:38:48.107Z,23.00
2023-01-30T20:41:17.129Z,23.00
2023-01-30T20:43:47.213Z,23.00
2023-01-30T20:46:16.296Z,23.00
2023-01-30T20:48:44.446Z,23.00
2023-01-30T20:51:14.608Z,23.00
2023-01-30T20:53:47.782Z,23.00
2023-01-30T20:56:15.806Z,22.90
2023-01-30T20:58:43.875Z,22.90
2023-01-30T21:01:13.042Z,22.90
2023-01-30T21:03:41.375Z,22.90
2023-01-30T21:06:09.472Z,22.90
2023-01-30T21:08:39.441Z,23.00
2023-01-30T21:11:08.496Z,23.00
2023-01-30T21:13:37.028Z,23.10
2023-01-30T21:16:06.175Z,23.20
2023-01-30T21:18:34.866Z,23.30
2023-01-30T21:21:02.930Z,23.50
2023-01-30T21:23:32.222Z,23.70
2023-01-30T21:26:05.684Z,23.80
2023-01-30T21:28:33.955Z,24.00
2023-01-30T21:31:06.667Z,24.20
2023-01-30T21:33:34.959Z,24.40
2023-01-30T21:36:02.987Z,24.50
2023-01-30T21:38:51.580Z,24.70
2023-01-30T21:41:39.401Z,24.80
2023-01-30T21:44:07.816Z,24.90
2023-01-30T21:46:37.684Z,25.00
2023-01-30T21:49:05.761Z,25.00
2023-01-30T21:51:33.946Z,25.10
2023-01-30T21:54:03.432Z,25.10
2023-01-30T21:56:32.825Z,25.10
2023-01-30T21:59:01.195Z,25.00
2023-01-30T22:01:29.229Z,25.00
2023-01-30T22:03:59.636Z,24.90
2023-01-30T22:06:28.008Z,24.90
2023-01-30T22:08:56.013Z,24.80
2023-01-30T22:11:23.989Z,24.70
2023-01-30T22:13:53.655Z,24.70
2023-01-30T22:16:22.726Z,24.60
2023-01-30T22:18:53.149Z,24.60
2023-01-30T22:21:22.345Z,24.50
2023-01-30T22:23:51.063Z,24.40
2023-01-30T22:26:19.720Z,24.40
2023-01-30T22:28:48.313Z,24.30
2023-01-30T22:31:18.402Z,24.30
2023-01-30T22:33:46.590Z,24.20
2023-01-30T22:36:15.059Z,24.10
2023-01-30T22:38:43.498Z,24.10
2023-01-30T22:41:14.735Z,24.00
2023-01-30T22:43:44.746Z,24.00
2023-01-30T22:46:12.991Z,23.90
2023-01-30T22:48:42.562Z,23.90
2023-01-30T22:51:13.678Z,23.90
2023-01-30T22:53:42.481Z,23.80
2023-01-30T22:56:11.611Z,23.80
2023-01-30T22:58:39.837Z,23.70
2023-01-30T23:01:08.445Z,23.70
2023-01-30T23:03:36.936Z,23.70
2023-01-30T23:06:07.817Z,23.60
2023-01-30T23:08:36.854Z,23.60
2023-01-30T23:11:08.910Z,23.50
2023-01-30T23:13:36.900Z,23.50
2023-01-30T23:16:05.855Z,23.50
2023-01-30T23:18:51.447Z,23.50
2023-01-30T23:21:20.739Z,23.40
2023-01-30T23:23:48.750Z,23.40
2023-01-30T23:26:16.727Z,23.30
2023-01-30T23:28:44.702Z,23.40
2023-01-30T23:31:17.619Z,23.30
2023-01-30T23:33:45.749Z,23.30
2023-01-30T23:36:14.558Z,23.30
2023-01-30T23:38:44.412Z,23.20
2023-01-30T23:41:13.442Z,23.20
2023-01-30T23:43:41.797Z,23.20
2023-01-30T23:46:15.353Z,23.10
2023-01-30T23:48:43.581Z,23.10
2023-01-30T23:51:11.595Z,23.10
2023-01-30T23:53:39.960Z,23.10
2023-01-30T23:56:09.829Z,23.00
2023-01-30T23:58:37.878Z,23.00
